Weather at La Mancha-Toledo Airfield

Public forecast

Using degrees Celsius for public forecast. Weather courtesy of forecast.io.

Closest aviation weather report (METAR) to La Mancha-Toledo Airfield

Report is more than 6 hours old.

Closest report is Getafe Air Base, 49.1 nm (90.8 km) NNW.

2022/11/14 15:30 (retrieved 2 years ago)

LEGT 141530Z 25010KT 210V270 9999 FEW022 BKN048 17/12 Q1019

Closest aviation forecast (TAF) to La Mancha-Toledo Airfield

Forecast is more than 12 hours old.

Closest forecast is Getafe Air Base, 49.1 nm (90.8 km) NNW.

2023/02/22 18:29 (retrieved 1 year ago)

TAF LEGT 221700Z 2218/2318 VRB04KT 9999 BKN040 TX15/2218Z TN05/2318Z TEMPO 2308/2311 25010KT PROB30 TEMPO 2309/2315 RA SHRA BKN020 FEW030TCU BECMG 2312/2313 28012KT PROB40 TEMPO 2312/2318 28014G27KT